Time;durP1;ratioP1;P1;durP2;ratioP2;P2;SDS_P1;SDS_P2;PMS_P1;PMS_P2;Temp;Humidity;BMP_temperature;BMP_pressure;BME280_temperature;BME280_humidity;BME280_pressure;Samples;Min_cycle;Max_cycle;Signal;HPM_P1;HPM_P2
2022/01/17 00:01:47;;;;;;;43.10;25.77;;;7.00;99.90;;;;;;5067755;28;20181;-39
2022/01/17 00:04:13;;;;;;;45.20;25.80;;;6.90;99.90;;;;;;5068585;28;20488;-39
2022/01/17 00:06:39;;;;;;;39.97;24.10;;;7.10;99.90;;;;;;5067743;28;20419;-40
2022/01/17 00:09:06;;;;;;;39.00;23.00;;;7.50;99.90;;;;;;5069024;28;20792;-42
2022/01/17 00:11:33;;;;;;;37.10;24.47;;;7.20;99.90;;;;;;5055259;28;20476;-39
2022/01/17 00:13:58;;;;;;;40.10;24.63;;;7.20;99.90;;;;;;5065291;28;20765;-41
2022/01/17 00:16:33;;;;;;;41.47;24.90;;;7.20;99.90;;;;;;5069347;28;20424;-39
2022/01/17 00:19:29;;;;;;;42.97;24.40;;;7.20;99.90;;;;;;5069131;28;20216;-39
2022/01/17 00:21:52;;;;;;;38.80;23.33;;;7.20;99.90;;;;;;5068466;28;20968;-39
2022/01/17 00:24:21;;;;;;;42.80;24.33;;;7.10;99.90;;;;;;5069148;28;20412;-38
2022/01/17 00:26:47;;;;;;;38.33;24.17;;;7.30;99.90;;;;;;5063571;28;20431;-39
2022/01/17 00:29:13;;;;;;;38.10;23.37;;;7.10;99.90;;;;;;5066959;28;20427;-40
2022/01/17 00:31:39;;;;;;;41.37;25.03;;;7.10;99.90;;;;;;5068230;28;20284;-40
2022/01/17 00:34:05;;;;;;;39.33;25.10;;;7.10;99.90;;;;;;5068589;28;20539;-39
2022/01/17 00:36:30;;;;;;;40.40;22.37;;;7.10;99.90;;;;;;5068681;28;20543;-39
2022/01/17 00:38:56;;;;;;;40.07;22.73;;;7.20;99.90;;;;;;5068787;28;20641;-39
2022/01/17 00:41:22;;;;;;;35.67;21.57;;;7.30;99.90;;;;;;5060065;28;20191;-41
2022/01/17 00:43:47;;;;;;;37.03;22.63;;;6.90;99.90;;;;;;5068680;28;20181;-38
2022/01/17 00:46:13;;;;;;;35.20;22.80;;;7.00;99.90;;;;;;5068297;28;20284;-39
2022/01/17 00:48:38;;;;;;;39.17;24.57;;;7.00;99.90;;;;;;5068465;28;20499;-38
2022/01/17 00:51:04;;;;;;;45.23;24.53;;;7.10;99.90;;;;;;5066965;28;20661;-39
2022/01/17 00:53:30;;;;;;;41.00;24.97;;;6.90;99.90;;;;;;5068547;28;20537;-40
2022/01/17 00:55:56;;;;;;;40.03;23.20;;;6.80;99.90;;;;;;5059940;28;20204;-39
2022/01/17 00:58:22;;;;;;;37.13;22.60;;;7.00;99.90;;;;;;5065793;28;20855;-39
2022/01/17 01:00:47;;;;;;;37.90;22.77;;;6.70;99.90;;;;;;5067280;28;20212;-39
2022/01/17 01:03:13;;;;;;;38.33;23.83;;;6.80;99.90;;;;;;5067348;28;20479;-39
2022/01/17 01:05:39;;;;;;;39.57;23.70;;;7.10;99.90;;;;;;5068266;28;20451;-38
2022/01/17 01:08:05;;;;;;;38.83;22.40;;;6.70;99.90;;;;;;5068321;28;20426;-39
2022/01/17 01:10:32;;;;;;;34.17;22.30;;;6.80;99.90;;;;;;5060645;28;20432;-39
2022/01/17 01:12:58;;;;;;;33.53;22.27;;;6.90;99.90;;;;;;5061982;28;20944;-39
2022/01/17 01:18:36;;;;;;;38.37;24.60;;;6.90;99.90;;;;;;5038168;28;20333;-39
2022/01/17 01:29:21;;;;;;;39.60;22.63;;;7.10;99.90;;;;;;5067609;28;20427;-41
2022/01/17 01:31:58;;;;;;;40.77;23.37;;;7.10;99.90;;;;;;5067170;28;20438;-38
2022/01/17 01:34:38;;;;;;;39.40;22.53;;;6.90;99.90;;;;;;5067501;28;20187;-39
2022/01/17 01:37:04;;;;;;;40.57;24.70;;;7.20;99.90;;;;;;5067660;28;20434;-39
2022/01/17 01:39:30;;;;;;;44.37;24.40;;;6.90;99.90;;;;;;5067762;28;20554;-40
2022/01/17 01:41:58;;;;;;;36.53;22.40;;;7.00;99.90;;;;;;5059015;28;20858;-39
2022/01/17 01:44:25;;;;;;;37.70;23.00;;;7.00;99.90;;;;;;5067405;28;20438;-38
2022/01/17 01:46:53;;;;;;;37.40;23.40;;;7.00;99.90;;;;;;5067116;28;20553;-38
2022/01/17 01:49:20;;;;;;;35.03;22.70;;;7.20;99.90;;;;;;5067639;28;20438;-39
2022/01/17 01:51:46;;;;;;;39.63;24.40;;;7.10;99.90;;;;;;5066093;28;20430;-39
2022/01/17 01:54:13;;;;;;;38.73;23.23;;;7.00;99.90;;;;;;5067616;28;20430;-39
2022/01/17 01:56:45;;;;;;;42.60;24.40;;;6.90;99.90;;;;;;5057857;28;20815;-39
2022/01/17 01:59:13;;;;;;;40.33;25.23;;;7.00;99.90;;;;;;5067026;28;20462;-39
2022/01/17 02:01:40;;;;;;;45.30;24.70;;;6.90;99.90;;;;;;5067020;28;20475;-39
2022/01/17 02:04:06;;;;;;;41.63;24.60;;;7.00;99.90;;;;;;5067404;28;20447;-39
2022/01/17 02:06:33;;;;;;;44.53;24.77;;;7.20;99.90;;;;;;5067453;28;20189;-38
2022/01/17 02:09:00;;;;;;;40.07;24.00;;;7.10;99.90;;;;;;5067231;28;20419;-39
2022/01/17 02:11:26;;;;;;;43.20;26.47;;;6.80;99.90;;;;;;5056811;28;20431;-39
2022/01/17 02:13:52;;;;;;;43.03;25.30;;;6.90;99.90;;;;;;5066556;28;20427;-39
2022/01/17 02:16:22;;;;;;;42.33;25.93;;;6.90;99.90;;;;;;5071574;28;20643;-39
2022/01/17 02:18:49;;;;;;;42.87;25.80;;;6.80;99.90;;;;;;5071292;28;20521;-41
2022/01/17 02:23:42;;;;;;;45.33;28.23;;;6.70;99.90;;;;;;5071179;28;20437;-39
2022/01/17 02:26:08;;;;;;;45.80;26.10;;;6.80;99.90;;;;;;5063945;28;20439;-39
2022/01/17 02:28:36;;;;;;;41.10;25.03;;;6.80;99.90;;;;;;5063230;28;20431;-38
2022/01/17 02:31:06;;;;;;;45.27;25.03;;;7.00;99.90;;;;;;5070216;28;20454;-41
2022/01/17 02:33:33;;;;;;;43.83;25.30;;;6.90;99.90;;;;;;5071269;28;20442;-41
2022/01/17 02:35:59;;;;;;;46.60;25.20;;;6.80;99.90;;;;;;5071206;28;20783;-39
2022/01/17 02:38:25;;;;;;;45.77;26.23;;;6.90;99.90;;;;;;5070362;28;20454;-38
2022/01/17 02:40:51;;;;;;;45.50;27.50;;;6.70;99.90;;;;;;5066879;28;20436;-40
2022/01/17 02:43:19;;;;;;;55.20;30.60;;;6.70;99.90;;;;;;5060989;28;20197;-38
2022/01/17 02:48:18;;;;;;;49.87;29.30;;;6.40;99.90;;;;;;5071102;28;20890;-39
2022/01/17 02:50:44;;;;;;;55.90;30.30;;;6.60;99.90;;;;;;5067816;28;20423;-41
2022/01/17 02:53:13;;;;;;;53.67;30.40;;;6.40;99.90;;;;;;5070675;28;20495;-38
2022/01/17 02:55:44;;;;;;;54.00;29.00;;;6.60;99.90;;;;;;5068117;28;20731;-39
2022/01/17 02:58:10;;;;;;;52.77;30.33;;;6.70;99.90;;;;;;5065623;28;20648;-38
2022/01/17 03:00:36;;;;;;;60.77;32.00;;;6.60;99.90;;;;;;5069597;28;20427;-38
2022/01/17 03:03:02;;;;;;;54.40;29.80;;;6.80;99.90;;;;;;5070307;28;20430;-38
2022/01/17 03:05:27;;;;;;;48.83;28.53;;;6.80;99.90;;;;;;5070417;28;20208;-39
2022/01/17 03:07:53;;;;;;;53.63;28.70;;;6.60;99.90;;;;;;5070275;28;20664;-38
2022/01/17 03:10:39;;;;;;;54.57;31.20;;;6.60;99.90;;;;;;5068316;28;20897;-38
2022/01/17 03:13:12;;;;;;;48.47;29.40;;;6.70;99.90;;;;;;5061464;28;20236;-38
2022/01/17 03:15:39;;;;;;;49.20;26.83;;;6.70;99.90;;;;;;5069651;28;20689;-38
2022/01/17 03:18:05;;;;;;;50.90;27.33;;;6.60;99.90;;;;;;5069939;28;20918;-39
2022/01/17 03:20:31;;;;;;;51.73;28.17;;;6.80;99.90;;;;;;5069308;28;20423;-38
2022/01/17 03:22:57;;;;;;;53.30;27.13;;;6.80;99.90;;;;;;5069895;28;20423;-38
2022/01/17 03:25:23;;;;;;;48.60;28.83;;;6.80;99.90;;;;;;5068432;28;20419;-38
2022/01/17 03:27:49;;;;;;;51.07;29.60;;;6.80;99.90;;;;;;5060752;28;20445;-38
2022/01/17 03:30:15;;;;;;;48.97;26.70;;;6.80;99.90;;;;;;5069277;28;20197;-38
2022/01/17 03:32:40;;;;;;;51.20;28.03;;;6.90;99.90;;;;;;5070263;28;20419;-39
2022/01/17 03:35:06;;;;;;;48.60;28.00;;;6.90;99.90;;;;;;5069608;28;20200;-38
2022/01/17 03:37:32;;;;;;;49.10;26.57;;;6.70;99.90;;;;;;5069615;28;20181;-38
2022/01/17 03:39:58;;;;;;;47.30;27.37;;;6.90;99.90;;;;;;5069116;28;20826;-38
2022/01/17 03:42:24;;;;;;;46.27;25.63;;;6.80;99.90;;;;;;5056707;28;20212;-38
2022/01/17 03:44:50;;;;;;;55.90;26.80;;;6.90;99.90;;;;;;5069783;28;20185;-40
2022/01/17 03:47:17;;;;;;;56.27;29.27;;;7.00;99.90;;;;;;5069747;28;20784;-38
2022/01/17 03:49:43;;;;;;;49.83;27.30;;;6.90;99.90;;;;;;5067473;28;20423;-38
2022/01/17 03:52:08;;;;;;;47.60;27.43;;;6.90;99.90;;;;;;5068974;28;20768;-39
2022/01/17 03:54:34;;;;;;;43.70;26.23;;;6.60;99.90;;;;;;5069729;28;20439;-38
2022/01/17 03:57:01;;;;;;;47.67;28.00;;;6.60;99.90;;;;;;5060639;28;20616;-39
2022/01/17 03:59:27;;;;;;;52.80;27.23;;;6.60;99.90;;;;;;5069316;28;20598;-38
2022/01/17 04:01:53;;;;;;;48.90;26.33;;;6.60;99.90;;;;;;5069173;28;20682;-39
2022/01/17 04:04:18;;;;;;;43.10;25.80;;;6.40;99.90;;;;;;5069088;28;20852;-38
2022/01/17 04:06:44;;;;;;;46.60;25.50;;;6.50;99.90;;;;;;5069362;28;20454;-38
2022/01/17 04:09:10;;;;;;;52.67;27.53;;;6.50;99.90;;;;;;5069224;28;20181;-39
2022/01/17 04:11:36;;;;;;;42.80;27.10;;;6.50;99.90;;;;;;5064552;28;20303;-38
2022/01/17 04:14:03;;;;;;;48.23;26.80;;;6.40;99.90;;;;;;5068851;28;20427;-39
2022/01/17 04:16:29;;;;;;;44.30;25.27;;;6.50;99.90;;;;;;5069322;28;20454;-38
2022/01/17 04:18:55;;;;;;;51.03;25.87;;;6.40;99.90;;;;;;5067320;28;20908;-38
2022/01/17 04:21:21;;;;;;;44.77;24.80;;;6.60;99.90;;;;;;5068418;28;20208;-38
2022/01/17 04:23:47;;;;;;;51.17;28.43;;;6.40;99.90;;;;;;5069372;28;20450;-38
2022/01/17 04:26:14;;;;;;;49.33;25.97;;;6.70;99.90;;;;;;5067433;28;20451;-38
2022/01/17 04:28:40;;;;;;;53.17;25.50;;;6.70;99.90;;;;;;5061127;28;20428;-39
2022/01/17 04:31:06;;;;;;;44.73;27.10;;;6.50;99.90;;;;;;5067985;28;20450;-38
2022/01/17 04:33:32;;;;;;;48.00;26.00;;;6.50;99.90;;;;;;5068820;28;20430;-38
2022/01/17 04:35:57;;;;;;;47.10;25.57;;;6.60;99.90;;;;;;5068455;28;20415;-39
2022/01/17 04:38:23;;;;;;;47.40;26.47;;;6.50;99.90;;;;;;5068819;28;20209;-38
2022/01/17 04:41:01;;;;;;;39.03;24.00;;;6.50;99.90;;;;;;5068265;28;20185;-38
2022/01/17 04:45:07;;;;;;;46.20;25.87;;;6.70;99.90;;;;;;5058831;28;20419;-38
2022/01/17 04:46:19;;;;;;;41.10;23.53;;;6.60;99.90;;;;;;5062660;28;20478;-39
2022/01/17 04:48:45;;;;;;;40.67;25.23;;;6.70;99.90;;;;;;5068768;28;20467;-39
2022/01/17 04:51:11;;;;;;;58.00;25.43;;;6.50;99.90;;;;;;5066903;28;20890;-38
2022/01/17 04:53:38;;;;;;;52.00;25.30;;;6.60;99.90;;;;;;5068559;28;20497;-38
2022/01/17 04:56:03;;;;;;;50.50;27.43;;;6.50;99.90;;;;;;5067990;28;20450;-38
2022/01/17 04:58:29;;;;;;;45.70;24.67;;;6.60;99.90;;;;;;5054915;28;20468;-38
2022/01/17 05:00:56;;;;;;;41.30;23.10;;;6.60;99.90;;;;;;5067261;28;20191;-39
2022/01/17 05:03:25;;;;;;;42.43;23.17;;;6.40;99.90;;;;;;5068415;28;20197;-38
2022/01/17 05:05:50;;;;;;;44.00;25.20;;;6.50;99.90;;;;;;5068283;28;20434;-38
2022/01/17 05:08:17;;;;;;;40.20;21.90;;;6.50;99.90;;;;;;5067942;28;20918;-38
2022/01/17 05:10:51;;;;;;;36.17;23.10;;;6.70;99.90;;;;;;5067810;28;20419;-38
2022/01/17 05:13:21;;;;;;;40.07;22.80;;;6.50;99.90;;;;;;5056969;28;20436;-38
2022/01/17 05:15:52;;;;;;;41.87;22.80;;;6.50;99.90;;;;;;5066581;28;20425;-40
2022/01/17 05:19:48;;;;;;;33.17;21.50;;;6.40;99.90;;;;;;5067761;28;20459;-38
2022/01/17 05:21:09;;;;;;;41.90;20.63;;;6.50;99.90;;;;;;5067216;28;20424;-38
2022/01/17 05:23:35;;;;;;;39.73;22.60;;;6.60;99.90;;;;;;5067271;28;20419;-38
2022/01/17 05:26:01;;;;;;;39.67;20.40;;;6.50;99.90;;;;;;5067749;28;20184;-38
2022/01/17 05:28:27;;;;;;;35.97;19.77;;;6.60;99.90;;;;;;5059951;28;20189;-38
2022/01/17 05:30:53;;;;;;;33.10;17.20;;;6.80;99.90;;;;;;5067226;28;20184;-38
2022/01/17 05:33:19;;;;;;;33.53;19.00;;;6.50;99.90;;;;;;5064269;28;20217;-38
2022/01/17 05:35:44;;;;;;;36.37;19.37;;;6.70;99.90;;;;;;5064725;28;20416;-38
2022/01/17 05:38:10;;;;;;;29.73;17.00;;;6.50;99.90;;;;;;5066966;28;20283;-38
2022/01/17 05:40:35;;;;;;;39.87;18.60;;;6.50;99.90;;;;;;5067509;28;20314;-38
2022/01/17 05:43:01;;;;;;;31.37;18.00;;;6.60;99.90;;;;;;5058495;28;20197;-38
2022/01/17 05:45:27;;;;;;;27.50;16.70;;;6.30;99.90;;;;;;5065264;28;20272;-38
2022/01/17 05:47:52;;;;;;;28.37;17.43;;;6.40;99.90;;;;;;5066711;28;21085;-40
2022/01/17 05:50:18;;;;;;;32.90;16.80;;;6.30;99.90;;;;;;5065996;28;20196;-39
2022/01/17 05:52:45;;;;;;;23.93;15.47;;;6.40;99.90;;;;;;5066174;28;20196;-38
2022/01/17 05:55:13;;;;;;;31.20;15.57;;;6.20;99.90;;;;;;5067269;28;20187;-38
2022/01/17 05:57:39;;;;;;;30.50;15.00;;;6.30;99.90;;;;;;5064078;28;20825;-39
2022/01/17 06:00:07;;;;;;;27.43;16.20;;;6.30;99.90;;;;;;5062136;28;20806;-39
2022/01/17 06:02:33;;;;;;;28.63;14.70;;;6.50;99.90;;;;;;5066232;28;20173;-39
2022/01/17 06:04:59;;;;;;;26.17;16.13;;;6.40;99.90;;;;;;5066888;28;20423;-38
2022/01/17 06:07:25;;;;;;;27.17;14.17;;;6.30;99.90;;;;;;5067367;28;20250;-39
2022/01/17 06:09:50;;;;;;;27.43;13.93;;;6.50;99.90;;;;;;5066619;28;20200;-40
2022/01/17 06:12:16;;;;;;;22.60;14.50;;;6.40;99.90;;;;;;5062920;28;20207;-40
2022/01/17 06:14:42;;;;;;;21.17;13.13;;;6.30;99.90;;;;;;5059171;28;20949;-39
2022/01/17 06:17:08;;;;;;;19.47;14.17;;;6.30;99.90;;;;;;5066251;28;20197;-39
2022/01/17 06:19:34;;;;;;;26.83;14.30;;;6.40;99.90;;;;;;5066160;28;20200;-39
2022/01/17 06:21:59;;;;;;;26.00;14.70;;;6.50;99.90;;;;;;5053227;28;20525;-38
2022/01/17 06:24:25;;;;;;;27.07;14.53;;;6.20;99.90;;;;;;5064661;28;20426;-38
2022/01/17 06:26:51;;;;;;;28.63;15.97;;;6.50;99.90;;;;;;5065396;28;20543;-38
2022/01/17 06:29:18;;;;;;;27.73;14.13;;;6.30;99.90;;;;;;5058853;28;20185;-38
2022/01/17 06:31:44;;;;;;;26.70;14.17;;;6.40;99.90;;;;;;5066105;28;20455;-38
2022/01/17 06:34:11;;;;;;;21.37;13.87;;;6.50;99.90;;;;;;5066675;28;20419;-40
2022/01/17 06:36:41;;;;;;;28.37;14.43;;;6.40;99.90;;;;;;5067278;28;20434;-39
2022/01/17 06:39:07;;;;;;;22.30;13.43;;;6.30;99.90;;;;;;5066903;28;20463;-38
2022/01/17 06:41:33;;;;;;;29.60;14.60;;;6.30;99.90;;;;;;5066224;28;20411;-38
2022/01/17 06:43:59;;;;;;;27.23;15.23;;;6.10;99.90;;;;;;5057797;28;20424;-38
2022/01/17 06:46:25;;;;;;;24.90;14.30;;;6.30;99.90;;;;;;5065165;28;20468;-38
2022/01/17 06:48:51;;;;;;;28.00;14.67;;;6.50;99.90;;;;;;5066636;28;20239;-39
2022/01/17 06:51:17;;;;;;;26.10;14.53;;;6.20;99.90;;;;;;5064408;28;20989;-38
2022/01/17 06:53:43;;;;;;;24.87;15.47;;;6.40;99.90;;;;;;5066664;28;20427;-38
2022/01/17 06:56:10;;;;;;;26.87;14.43;;;6.40;99.90;;;;;;5066572;28;20542;-40
2022/01/17 06:58:36;;;;;;;24.80;13.70;;;6.40;99.90;;;;;;5056974;28;20970;-39
2022/01/17 07:01:04;;;;;;;32.13;15.13;;;6.60;99.90;;;;;;5068223;28;20415;-38
2022/01/17 07:03:31;;;;;;;26.97;13.70;;;6.30;99.90;;;;;;5069919;28;20426;-38
2022/01/17 07:05:56;;;;;;;20.23;12.20;;;6.30;99.90;;;;;;5067072;28;20423;-39
2022/01/17 07:08:22;;;;;;;27.60;12.83;;;6.10;99.90;;;;;;5067170;28;20430;-38
2022/01/17 07:10:48;;;;;;;26.20;14.70;;;6.10;99.90;;;;;;5068475;28;20233;-38
2022/01/17 07:13:13;;;;;;;24.30;14.20;;;6.10;99.90;;;;;;5060877;28;20197;-39
2022/01/17 07:15:39;;;;;;;23.20;15.13;;;6.50;99.90;;;;;;5060205;28;20242;-38
2022/01/17 07:18:06;;;;;;;24.53;14.00;;;6.30;99.90;;;;;;5070715;28;20267;-38
2022/01/17 07:20:33;;;;;;;22.47;13.50;;;6.10;99.90;;;;;;5069813;28;20197;-41
2022/01/17 07:22:59;;;;;;;20.93;12.63;;;6.30;99.90;;;;;;5070095;28;20512;-39
2022/01/17 07:25:25;;;;;;;24.70;13.40;;;6.40;99.90;;;;;;5069502;28;20419;-38
2022/01/17 07:27:51;;;;;;;21.23;13.10;;;6.50;99.90;;;;;;5072173;28;20415;-39
2022/01/17 07:30:17;;;;;;;20.30;12.67;;;6.30;99.90;;;;;;5065470;28;20780;-38
2022/01/17 07:32:42;;;;;;;22.00;13.10;;;6.20;99.90;;;;;;5066946;28;20603;-39
2022/01/17 07:35:09;;;;;;;21.50;12.67;;;6.20;99.90;;;;;;5069369;28;20608;-39
2022/01/17 07:37:35;;;;;;;22.40;12.70;;;6.30;99.90;;;;;;5070175;28;20268;-42
2022/01/17 07:40:03;;;;;;;22.40;12.50;;;6.30;99.90;;;;;;5068613;28;20451;-38
2022/01/17 07:42:29;;;;;;;24.80;13.23;;;6.40;99.90;;;;;;5070473;28;20420;-38
2022/01/17 07:44:57;;;;;;;19.93;13.77;;;6.40;99.90;;;;;;5063437;28;20427;-39
2022/01/17 07:47:38;;;;;;;23.23;12.70;;;6.30;99.90;;;;;;5069347;28;20292;-39
2022/01/17 07:50:06;;;;;;;22.37;12.60;;;6.40;99.90;;;;;;5067556;28;20708;-39
2022/01/17 07:52:33;;;;;;;31.90;13.67;;;6.50;99.90;;;;;;5066018;28;20976;-39
2022/01/17 07:54:58;;;;;;;21.73;13.23;;;6.30;99.90;;;;;;5063645;28;20502;-40
2022/01/17 07:57:24;;;;;;;26.23;14.60;;;6.40;99.90;;;;;;5068095;28;20557;-39
2022/01/17 07:59:50;;;;;;;24.93;15.00;;;6.70;99.90;;;;;;5060776;28;20290;-38
2022/01/17 08:02:16;;;;;;;20.80;12.80;;;6.30;99.90;;;;;;5067266;28;20181;-38
2022/01/17 08:04:41;;;;;;;26.67;13.07;;;6.60;99.90;;;;;;5069514;28;20422;-39
2022/01/17 08:07:07;;;;;;;23.43;12.80;;;6.60;99.90;;;;;;5068931;28;20188;-38
2022/01/17 08:09:34;;;;;;;21.30;12.97;;;6.60;99.90;;;;;;5068671;28;20236;-39
2022/01/17 08:12:00;;;;;;;21.17;14.37;;;6.50;99.90;;;;;;5067966;28;20507;-39
2022/01/17 08:14:26;;;;;;;25.27;14.63;;;6.60;99.90;;;;;;5063310;28;20435;-39
2022/01/17 08:16:53;;;;;;;21.13;15.60;;;6.60;99.90;;;;;;5072796;28;20682;-38
2022/01/17 08:19:20;;;;;;;22.63;15.63;;;6.50;99.90;;;;;;5068969;28;20741;-38
2022/01/17 08:21:51;;;;;;;26.67;17.30;;;6.70;99.90;;;;;;5068572;28;20423;-38
2022/01/17 08:24:20;;;;;;;24.07;17.93;;;6.50;99.90;;;;;;5080937;28;20414;-39
2022/01/17 08:26:46;;;;;;;31.33;17.80;;;6.70;99.90;;;;;;5056190;28;20733;-38
2022/01/17 08:29:12;;;;;;;28.53;19.47;;;6.80;99.90;;;;;;5057027;28;21013;-39
2022/01/17 08:31:39;;;;;;;27.03;18.40;;;6.70;99.90;;;;;;5067760;28;20450;-39
2022/01/17 08:34:05;;;;;;;27.50;19.60;;;6.50;99.90;;;;;;5068850;28;20423;-39
2022/01/17 08:36:31;;;;;;;29.10;19.60;;;6.60;99.90;;;;;;5068451;28;20426;-39
2022/01/17 08:38:56;;;;;;;33.13;19.67;;;6.70;99.90;;;;;;5080361;28;20244;-38
2022/01/17 08:41:22;;;;;;;32.30;21.57;;;6.50;99.90;;;;;;5087997;28;20418;-38
2022/01/17 08:43:48;;;;;;;34.07;21.23;;;6.60;99.90;;;;;;5073709;28;20190;-39
2022/01/17 08:46:15;;;;;;;32.73;20.30;;;6.50;99.90;;;;;;5066989;28;20607;-41
2022/01/17 08:48:42;;;;;;;27.83;21.20;;;6.80;99.90;;;;;;5068605;28;20424;-39
2022/01/17 08:51:08;;;;;;;34.73;22.47;;;6.80;99.90;;;;;;5066896;28;20431;-39
2022/01/17 08:53:37;;;;;;;33.93;22.50;;;6.70;99.90;;;;;;5066942;28;20766;-39
2022/01/17 08:56:04;;;;;;;36.50;22.50;;;6.60;99.90;;;;;;5068139;28;20466;-39
2022/01/17 08:58:29;;;;;;;29.83;22.10;;;6.70;99.90;;;;;;5064964;28;20933;-38
2022/01/17 09:00:57;;;;;;;33.43;22.67;;;6.80;99.90;;;;;;5065172;28;20453;-39
2022/01/17 09:03:23;;;;;;;38.80;23.20;;;6.80;99.90;;;;;;5067914;28;20524;-39
2022/01/17 09:05:50;;;;;;;33.03;23.00;;;6.70;99.90;;;;;;5068110;28;20506;-38
2022/01/17 09:08:18;;;;;;;34.63;22.60;;;6.80;99.90;;;;;;5067904;28;20490;-39
2022/01/17 09:10:44;;;;;;;40.03;24.30;;;6.70;99.90;;;;;;5067183;28;20419;-39
2022/01/17 09:13:10;;;;;;;36.70;26.80;;;6.90;99.90;;;;;;5066432;28;20451;-39
2022/01/17 09:15:36;;;;;;;33.30;23.80;;;6.70;99.90;;;;;;5058539;28;20892;-41
2022/01/17 09:18:04;;;;;;;36.40;23.17;;;6.90;99.90;;;;;;5067962;28;20419;-41
2022/01/17 09:20:32;;;;;;;34.23;22.77;;;6.90;99.90;;;;;;5066930;28;20463;-38
2022/01/17 09:22:58;;;;;;;36.57;23.90;;;6.90;99.90;;;;;;5067493;28;20411;-40
2022/01/17 09:25:24;;;;;;;36.53;24.03;;;6.90;99.90;;;;;;5066851;28;20426;-39
2022/01/17 09:27:50;;;;;;;38.97;26.30;;;6.90;99.90;;;;;;5067781;28;20419;-39
2022/01/17 09:30:16;;;;;;;41.53;25.30;;;6.80;99.90;;;;;;5058143;28;20200;-39
2022/01/17 09:32:42;;;;;;;36.90;25.60;;;7.00;99.90;;;;;;5068037;28;20196;-39
2022/01/17 09:35:11;;;;;;;35.80;25.00;;;6.90;99.90;;;;;;5067587;28;20730;-38
2022/01/17 09:37:37;;;;;;;37.77;26.27;;;7.00;99.90;;;;;;5067721;28;20782;-40
2022/01/17 09:40:05;;;;;;;35.67;24.70;;;7.00;99.90;;;;;;5066774;28;20973;-39
2022/01/17 09:42:35;;;;;;;33.37;24.30;;;6.80;99.90;;;;;;5067528;28;20412;-39
2022/01/17 09:45:02;;;;;;;33.07;25.40;;;6.90;99.90;;;;;;5054903;28;20432;-39
2022/01/17 09:47:28;;;;;;;35.50;25.90;;;7.10;99.90;;;;;;5065148;28;20472;-40
2022/01/17 09:49:56;;;;;;;34.97;24.40;;;6.70;99.90;;;;;;5066790;28;20431;-39
2022/01/17 09:52:41;;;;;;;37.07;25.73;;;6.70;99.90;;;;;;5065372;28;20804;-39
2022/01/17 09:55:27;;;;;;;32.67;24.77;;;6.80;99.90;;;;;;5067871;28;20812;-41
2022/01/17 09:58:00;;;;;;;39.90;27.17;;;7.00;99.90;;;;;;5067557;28;20528;-39
2022/01/17 10:00:29;;;;;;;35.37;25.10;;;7.10;99.90;;;;;;5050595;28;20471;-41
2022/01/17 10:02:56;;;;;;;37.63;24.47;;;6.80;99.90;;;;;;5060630;28;20799;-38
2022/01/17 10:05:24;;;;;;;35.80;27.10;;;6.70;99.90;;;;;;5067391;28;20787;-40
2022/01/17 10:08:00;;;;;;;40.90;25.93;;;6.80;99.90;;;;;;5067097;28;20446;-40
2022/01/17 10:10:34;;;;;;;38.00;27.90;;;6.90;99.90;;;;;;5066784;28;20415;-39
2022/01/17 10:13:13;;;;;;;38.90;26.50;;;6.90;99.90;;;;;;5066862;28;20419;-40
2022/01/17 10:15:54;;;;;;;36.47;26.00;;;7.00;99.90;;;;;;5059647;28;20427;-39
2022/01/17 10:18:32;;;;;;;37.57;26.37;;;6.90;99.90;;;;;;5066991;28;20431;-40
2022/01/17 10:21:20;;;;;;;36.30;26.40;;;6.90;99.90;;;;;;5067131;28;20755;-41
2022/01/17 10:24:28;;;;;;;36.23;25.90;;;7.00;99.90;;;;;;5067087;28;20824;-38
2022/01/17 10:35:09;;;;;;;40.57;26.23;;;6.90;99.90;;;;;;5066449;28;20431;-39
2022/01/17 10:37:35;;;;;;;39.60;25.97;;;6.70;99.90;;;;;;5070975;28;20831;-39
2022/01/17 10:40:04;;;;;;;41.23;26.33;;;7.00;99.90;;;;;;5070243;28;20549;-39
2022/01/17 10:42:34;;;;;;;38.57;26.40;;;7.00;99.90;;;;;;5070817;28;20663;-39
2022/01/17 10:45:08;;;;;;;37.47;27.23;;;6.90;99.90;;;;;;5064862;28;20430;-39
2022/01/17 10:47:37;;;;;;;37.17;25.33;;;6.80;99.90;;;;;;5069554;28;20520;-39
2022/01/17 10:50:11;;;;;;;37.73;25.87;;;6.80;99.90;;;;;;5070497;28;20431;-38
2022/01/17 10:52:57;;;;;;;35.33;25.67;;;6.90;99.90;;;;;;5069227;28;20504;-39
2022/01/17 10:55:26;;;;;;;39.43;27.03;;;6.80;99.90;;;;;;5070872;28;20431;-39
2022/01/17 10:57:54;;;;;;;40.63;27.60;;;6.90;99.90;;;;;;5070908;28;20446;-38
2022/01/17 11:00:26;;;;;;;34.63;25.90;;;6.80;99.90;;;;;;5060759;28;20502;-39
2022/01/17 11:02:57;;;;;;;35.13;26.30;;;6.80;99.90;;;;;;5070586;28;20948;-39
2022/01/17 11:05:27;;;;;;;33.33;25.93;;;6.80;99.90;;;;;;5070723;28;20419;-39
2022/01/17 11:07:56;;;;;;;33.27;23.93;;;7.00;99.90;;;;;;5070752;28;20431;-39
2022/01/17 11:10:24;;;;;;;34.13;24.50;;;7.10;99.90;;;;;;5069874;28;20448;-39
2022/01/17 11:12:53;;;;;;;42.23;25.67;;;6.80;99.90;;;;;;5070435;28;20794;-39
2022/01/17 11:15:21;;;;;;;31.57;23.20;;;7.00;99.90;;;;;;5065052;28;20946;-39
2022/01/17 11:17:50;;;;;;;32.30;21.40;;;6.70;99.90;;;;;;5070033;28;20512;-39
2022/01/17 11:20:18;;;;;;;34.33;23.30;;;6.70;99.90;;;;;;5069366;28;20469;-39
2022/01/17 11:22:46;;;;;;;31.23;21.87;;;6.70;99.90;;;;;;5070360;28;20519;-39
2022/01/17 11:25:23;;;;;;;32.57;22.20;;;6.80;99.90;;;;;;5070113;28;20423;-39
2022/01/17 11:27:49;;;;;;;31.50;22.03;;;6.80;99.90;;;;;;5070100;28;21035;-39
2022/01/17 11:30:16;;;;;;;31.87;21.83;;;6.70;99.90;;;;;;5059492;28;20444;-39
2022/01/17 11:32:44;;;;;;;31.37;22.37;;;6.80;99.90;;;;;;5064245;28;20642;-38
2022/01/17 11:35:10;;;;;;;30.00;22.13;;;6.90;99.90;;;;;;5070054;28;20995;-39
2022/01/17 11:37:39;;;;;;;34.80;23.27;;;6.80;99.90;;;;;;5070017;28;20461;-40
2022/01/17 11:40:09;;;;;;;31.27;22.07;;;7.00;99.90;;;;;;5069072;28;20467;-39
2022/01/17 11:42:37;;;;;;;37.03;23.80;;;6.90;99.90;;;;;;5068282;28;20430;-40
2022/01/17 11:45:22;;;;;;;30.43;22.27;;;6.60;99.90;;;;;;5059800;28;20929;-39
2022/01/17 11:47:51;;;;;;;36.17;25.23;;;6.90;99.90;;;;;;5066514;28;20766;-40
2022/01/17 11:50:29;;;;;;;37.23;25.07;;;6.90;99.90;;;;;;5069308;28;20605;-39
2022/01/17 11:52:55;;;;;;;37.33;26.07;;;6.80;99.90;;;;;;5068075;28;20513;-39
2022/01/17 11:55:42;;;;;;;39.70;26.67;;;6.80;99.90;;;;;;5069671;28;21276;-40
2022/01/17 11:58:25;;;;;;;43.43;27.47;;;7.00;99.90;;;;;;5070051;28;20239;-38
2022/01/17 12:00:57;;;;;;;46.20;26.40;;;7.20;99.90;;;;;;5058936;28;20497;-39
2022/01/17 12:03:43;;;;;;;44.90;27.00;;;6.90;99.90;;;;;;5069145;28;20454;-39
2022/01/17 12:06:20;;;;;;;39.23;25.57;;;6.80;99.90;;;;;;5056445;28;20415;-39
2022/01/17 12:08:48;;;;;;;41.03;26.37;;;6.70;99.90;;;;;;5069581;28;20423;-39
2022/01/17 12:11:30;;;;;;;38.40;27.60;;;7.00;99.90;;;;;;5068909;28;20419;-39
2022/01/17 12:14:02;;;;;;;42.13;26.57;;;6.90;99.90;;;;;;5074504;28;20430;-39
2022/01/17 12:16:30;;;;;;;33.37;23.97;;;6.80;99.90;;;;;;5056341;28;20442;-39
2022/01/17 12:19:03;;;;;;;39.57;23.17;;;6.80;99.90;;;;;;5062649;28;20874;-39
2022/01/17 12:21:57;;;;;;;45.33;25.20;;;6.90;99.90;;;;;;5068774;28;20455;-39
2022/01/17 12:24:40;;;;;;;37.30;23.70;;;6.90;99.90;;;;;;5068959;28;20489;-38
2022/01/17 12:27:10;;;;;;;39.10;23.03;;;7.00;99.90;;;;;;5057927;28;20514;-39
2022/01/17 12:29:50;;;;;;;32.90;22.47;;;7.00;99.90;;;;;;5065586;28;20431;-39
2022/01/17 12:32:24;;;;;;;33.90;21.97;;;6.90;99.90;;;;;;5064338;28;20978;-39
2022/01/17 12:34:58;;;;;;;34.50;20.47;;;6.70;99.90;;;;;;5067212;28;20431;-41
2022/01/17 12:37:39;;;;;;;33.73;21.73;;;6.90;99.90;;;;;;5068856;28;20770;-38
2022/01/17 12:40:19;;;;;;;29.07;20.37;;;7.10;99.90;;;;;;5068108;28;20917;-39
2022/01/17 12:43:09;;;;;;;31.80;21.93;;;7.00;99.90;;;;;;5068704;28;20787;-39
2022/01/17 12:45:42;;;;;;;32.67;20.67;;;7.10;99.90;;;;;;5061394;28;20803;-39
2022/01/17 12:48:20;;;;;;;32.63;20.73;;;7.10;99.90;;;;;;5064038;28;20543;-41
2022/01/17 12:50:48;;;;;;;32.47;21.07;;;6.90;99.90;;;;;;5063229;28;20423;-39
2022/01/17 12:53:19;;;;;;;38.50;20.20;;;7.20;99.90;;;;;;5069039;28;20956;-39
2022/01/17 12:55:50;;;;;;;28.60;19.37;;;7.00;99.90;;;;;;5067170;28;21684;-39
2022/01/17 12:58:19;;;;;;;29.13;19.00;;;7.10;99.90;;;;;;5068556;28;20423;-39
2022/01/17 13:00:53;;;;;;;29.70;18.97;;;7.10;99.90;;;;;;5061028;28;20438;-39
2022/01/17 13:03:21;;;;;;;30.40;19.37;;;7.20;99.90;;;;;;5064883;28;20431;-40
2022/01/17 13:05:47;;;;;;;23.03;18.27;;;7.30;99.90;;;;;;5068013;28;20966;-39
2022/01/17 13:08:13;;;;;;;27.90;18.43;;;7.20;99.90;;;;;;5068084;28;20427;-38